KHSV

Huntsville International-Carl T Jones Field Airport

Huntsville, Alabama, USA
METAR KHSV 181353Z 14003KT 1/4SM R18R/2000V4500FT FG VV003 10/09 A3010 RMK AO2 SFC VIS 1/2 SLP193 T01000094
Observed Flight Rules
Jan-18 @ 13:53 UTC (24 minutes ago) Instrument Flight Rules
Wind Visibility Clouds Conditions
140° at 3 knots 1/4 miles
  • Vertical visibility at 300' AGL
  • Fog
Temperatures Readings
Current 10°C / 50°F
Dewpoint 9°C / 48°F
Humidity 94%
Altimeter 30.1" Hg
Pressure 1019.3 hPa
Elevation 191
METAR KHSV 181353Z 14003KT 1/4SM R18R/2000V4500FT FG VV003 10/09 A3010 RMK AO2 SFC VIS 1/2 SLP193 T01000094
Observed Flight Rules
Jan-18 @ 13:53 UTC
(24 minutes ago)
LIFR
Wind Visibility
140° at 3 knots 1/4 miles
Clouds
  • Vertical visibility at 300' AGL
Conditions
  • Fog
Temperature Dewpoint
10°C / 50°F 9°C / 48°F
Humidity Altimeter Pressure
94% 30.1" Hg 1019.3 hPa